sensor_id;sensor_type;location;lat;lon;timestamp;pressure;altitude;pressure_sealevel;temperature;humidity
34925;BME280;21130;51.728;8.748;2022-08-21T00:02:21;100508.09;;;13.57;100.00
34925;BME280;21130;51.728;8.748;2022-08-21T00:04:48;100503.63;;;13.56;100.00
34925;BME280;21130;51.728;8.748;2022-08-21T00:07:13;100504.97;;;13.54;100.00
34925;BME280;21130;51.728;8.748;2022-08-21T00:09:40;100500.22;;;13.49;100.00
34925;BME280;21130;51.728;8.748;2022-08-21T00:12:06;100492.13;;;13.48;100.00
34925;BME280;21130;51.728;8.748;2022-08-21T00:14:32;100495.47;;;13.50;100.00
34925;BME280;21130;51.728;8.748;2022-08-21T00:16:57;100493.28;;;13.52;100.00
34925;BME280;21130;51.728;8.748;2022-08-21T00:19:23;100490.75;;;13.50;100.00
34925;BME280;21130;51.728;8.748;2022-08-21T00:21:51;100492.94;;;13.48;100.00
34925;BME280;21130;51.728;8.748;2022-08-21T00:24:18;100495.16;;;13.46;100.00
34925;BME280;21130;51.728;8.748;2022-08-21T00:26:44;100506.00;;;13.43;100.00
34925;BME280;21130;51.728;8.748;2022-08-21T00:29:09;100509.38;;;13.45;100.00
34925;BME280;21130;51.728;8.748;2022-08-21T00:31:35;100511.25;;;13.39;100.00
34925;BME280;21130;51.728;8.748;2022-08-21T00:34:01;100505.06;;;13.32;100.00
34925;BME280;21130;51.728;8.748;2022-08-21T00:36:27;100497.72;;;13.26;100.00
34925;BME280;21130;51.728;8.748;2022-08-21T00:38:52;100494.63;;;13.22;100.00
34925;BME280;21130;51.728;8.748;2022-08-21T00:41:17;100492.94;;;13.21;100.00
34925;BME280;21130;51.728;8.748;2022-08-21T00:43:43;100496.50;;;13.16;100.00
34925;BME280;21130;51.728;8.748;2022-08-21T00:46:08;100495.34;;;13.12;100.00
34925;BME280;21130;51.728;8.748;2022-08-21T00:48:34;100499.75;;;13.08;100.00
34925;BME280;21130;51.728;8.748;2022-08-21T00:51:16;100495.31;;;13.07;100.00
34925;BME280;21130;51.728;8.748;2022-08-21T00:53:47;100500.81;;;13.02;100.00
34925;BME280;21130;51.728;8.748;2022-08-21T00:56:17;100501.34;;;12.99;100.00
34925;BME280;21130;51.728;8.748;2022-08-21T00:58:42;100494.31;;;12.96;100.00
34925;BME280;21130;51.728;8.748;2022-08-21T01:01:08;100496.56;;;12.94;100.00
34925;BME280;21130;51.728;8.748;2022-08-21T01:03:35;100492.91;;;12.94;100.00
34925;BME280;21130;51.728;8.748;2022-08-21T01:06:02;100496.81;;;12.93;100.00
34925;BME280;21130;51.728;8.748;2022-08-21T01:08:29;100492.06;;;12.93;100.00
34925;BME280;21130;51.728;8.748;2022-08-21T01:10:56;100489.28;;;12.93;100.00
34925;BME280;21130;51.728;8.748;2022-08-21T01:13:22;100488.97;;;12.90;100.00
34925;BME280;21130;51.728;8.748;2022-08-21T01:15:51;100495.38;;;12.90;100.00
34925;BME280;21130;51.728;8.748;2022-08-21T01:18:19;100492.59;;;12.90;100.00
34925;BME280;21130;51.728;8.748;2022-08-21T01:21:06;100498.41;;;12.89;100.00
34925;BME280;21130;51.728;8.748;2022-08-21T01:23:34;100497.56;;;12.88;100.00
34925;BME280;21130;51.728;8.748;2022-08-21T01:26:01;100500.13;;;12.90;100.00
34925;BME280;21130;51.728;8.748;2022-08-21T01:28:28;100505.41;;;12.91;100.00
34925;BME280;21130;51.728;8.748;2022-08-21T01:30:55;100499.84;;;12.91;100.00
34925;BME280;21130;51.728;8.748;2022-08-21T01:33:22;100497.44;;;13.00;100.00
34925;BME280;21130;51.728;8.748;2022-08-21T01:35:49;100502.25;;;13.05;100.00
34925;BME280;21130;51.728;8.748;2022-08-21T01:38:14;100495.44;;;12.95;100.00
34925;BME280;21130;51.728;8.748;2022-08-21T01:40:40;100494.25;;;12.91;100.00
34925;BME280;21130;51.728;8.748;2022-08-21T01:43:05;100499.53;;;12.88;100.00
34925;BME280;21130;51.728;8.748;2022-08-21T01:45:31;100498.63;;;12.82;100.00
34925;BME280;21130;51.728;8.748;2022-08-21T01:47:56;100500.00;;;12.80;100.00
34925;BME280;21130;51.728;8.748;2022-08-21T01:50:22;100492.72;;;12.79;100.00
34925;BME280;21130;51.728;8.748;2022-08-21T01:52:48;100497.75;;;12.77;100.00
34925;BME280;21130;51.728;8.748;2022-08-21T01:55:15;100489.63;;;12.75;100.00
34925;BME280;21130;51.728;8.748;2022-08-21T01:57:43;100494.38;;;12.74;100.00
34925;BME280;21130;51.728;8.748;2022-08-21T02:00:11;100502.13;;;12.72;100.00
34925;BME280;21130;51.728;8.748;2022-08-21T02:02:38;100496.75;;;12.66;100.00
34925;BME280;21130;51.728;8.748;2022-08-21T02:05:04;100494.78;;;12.66;100.00
34925;BME280;21130;51.728;8.748;2022-08-21T02:07:40;100493.38;;;12.64;100.00
34925;BME280;21130;51.728;8.748;2022-08-21T02:10:08;100480.25;;;12.59;100.00
34925;BME280;21130;51.728;8.748;2022-08-21T02:12:34;100486.59;;;12.54;100.00
34925;BME280;21130;51.728;8.748;2022-08-21T02:14:59;100483.47;;;12.51;100.00
34925;BME280;21130;51.728;8.748;2022-08-21T02:17:25;100476.22;;;12.50;100.00
34925;BME280;21130;51.728;8.748;2022-08-21T02:19:51;100484.81;;;12.48;100.00
34925;BME280;21130;51.728;8.748;2022-08-21T02:22:16;100482.03;;;12.48;100.00
34925;BME280;21130;51.728;8.748;2022-08-21T02:24:42;100477.84;;;12.46;100.00
34925;BME280;21130;51.728;8.748;2022-08-21T02:27:07;100471.97;;;12.42;100.00
34925;BME280;21130;51.728;8.748;2022-08-21T02:29:33;100476.69;;;12.42;100.00
34925;BME280;21130;51.728;8.748;2022-08-21T02:31:58;100479.25;;;12.48;100.00
34925;BME280;21130;51.728;8.748;2022-08-21T02:34:24;100480.91;;;12.44;100.00
34925;BME280;21130;51.728;8.748;2022-08-21T02:36:49;100479.78;;;12.45;100.00
34925;BME280;21130;51.728;8.748;2022-08-21T02:39:15;100483.69;;;12.44;100.00
34925;BME280;21130;51.728;8.748;2022-08-21T02:41:40;100483.09;;;12.42;100.00
34925;BME280;21130;51.728;8.748;2022-08-21T02:44:05;100484.44;;;12.40;100.00
34925;BME280;21130;51.728;8.748;2022-08-21T02:46:31;100481.13;;;12.43;100.00
34925;BME280;21130;51.728;8.748;2022-08-21T02:48:56;100479.41;;;12.37;100.00
34925;BME280;21130;51.728;8.748;2022-08-21T02:51:21;100480.25;;;12.37;100.00
34925;BME280;21130;51.728;8.748;2022-08-21T02:53:48;100480.16;;;12.32;100.00
34925;BME280;21130;51.728;8.748;2022-08-21T02:56:17;100480.69;;;12.29;100.00
34925;BME280;21130;51.728;8.748;2022-08-21T02:58:48;100472.84;;;12.26;100.00
34925;BME280;21130;51.728;8.748;2022-08-21T03:01:15;100469.16;;;12.20;100.00
34925;BME280;21130;51.728;8.748;2022-08-21T03:03:42;100474.47;;;12.22;100.00
34925;BME280;21130;51.728;8.748;2022-08-21T03:06:09;100467.47;;;12.19;100.00
34925;BME280;21130;51.728;8.748;2022-08-21T03:08:36;100469.06;;;12.15;100.00
34925;BME280;21130;51.728;8.748;2022-08-21T03:11:03;100465.69;;;12.13;100.00
34925;BME280;21130;51.728;8.748;2022-08-21T03:13:29;100467.06;;;12.10;100.00
34925;BME280;21130;51.728;8.748;2022-08-21T03:15:55;100466.75;;;12.07;100.00
34925;BME280;21130;51.728;8.748;2022-08-21T03:18:21;100463.13;;;12.06;100.00
34925;BME280;21130;51.728;8.748;2022-08-21T03:20:47;100466.16;;;12.05;100.00
34925;BME280;21130;51.728;8.748;2022-08-21T03:23:14;100461.69;;;12.04;100.00
34925;BME280;21130;51.728;8.748;2022-08-21T03:25:42;100464.72;;;12.02;100.00
34925;BME280;21130;51.728;8.748;2022-08-21T03:28:13;100467.25;;;12.04;100.00
34925;BME280;21130;51.728;8.748;2022-08-21T03:30:41;100464.97;;;12.01;100.00
34925;BME280;21130;51.728;8.748;2022-08-21T03:33:06;100469.09;;;11.98;100.00
34925;BME280;21130;51.728;8.748;2022-08-21T03:35:32;100469.38;;;11.97;100.00
34925;BME280;21130;51.728;8.748;2022-08-21T03:37:57;100470.44;;;11.96;100.00
34925;BME280;21130;51.728;8.748;2022-08-21T03:40:24;100471.56;;;11.95;100.00
34925;BME280;21130;51.728;8.748;2022-08-21T03:42:50;100471.56;;;11.95;100.00
34925;BME280;21130;51.728;8.748;2022-08-21T03:45:17;100475.53;;;11.99;100.00
34925;BME280;21130;51.728;8.748;2022-08-21T03:47:58;100474.41;;;12.00;100.00
34925;BME280;21130;51.728;8.748;2022-08-21T03:50:26;100476.44;;;12.04;100.00
34925;BME280;21130;51.728;8.748;2022-08-21T03:52:53;100475.09;;;12.07;100.00
34925;BME280;21130;51.728;8.748;2022-08-21T03:55:18;100483.75;;;12.10;100.00
34925;BME280;21130;51.728;8.748;2022-08-21T03:57:44;100487.38;;;12.11;100.00
34925;BME280;21130;51.728;8.748;2022-08-21T04:00:10;100480.72;;;12.12;100.00
34925;BME280;21130;51.728;8.748;2022-08-21T04:02:38;100486.59;;;12.16;100.00
34925;BME280;21130;51.728;8.748;2022-08-21T04:05:04;100488.31;;;12.17;100.00
34925;BME280;21130;51.728;8.748;2022-08-21T04:07:29;100498.09;;;12.19;100.00
34925;BME280;21130;51.728;8.748;2022-08-21T04:09:56;100492.84;;;12.23;100.00
34925;BME280;21130;51.728;8.748;2022-08-21T04:12:21;100492.84;;;12.23;100.00
34925;BME280;21130;51.728;8.748;2022-08-21T04:14:47;100504.94;;;12.33;100.00
34925;BME280;21130;51.728;8.748;2022-08-21T04:17:12;100505.81;;;12.34;100.00
34925;BME280;21130;51.728;8.748;2022-08-21T04:19:38;100505.06;;;12.44;100.00
34925;BME280;21130;51.728;8.748;2022-08-21T04:22:03;100507.38;;;12.47;100.00
34925;BME280;21130;51.728;8.748;2022-08-21T04:24:29;100505.75;;;12.51;100.00
34925;BME280;21130;51.728;8.748;2022-08-21T04:26:54;100514.16;;;12.56;100.00
34925;BME280;21130;51.728;8.748;2022-08-21T04:29:20;100512.56;;;12.60;100.00
34925;BME280;21130;51.728;8.748;2022-08-21T04:31:45;100513.72;;;12.64;100.00
34925;BME280;21130;51.728;8.748;2022-08-21T04:34:10;100514.28;;;12.66;100.00
34925;BME280;21130;51.728;8.748;2022-08-21T04:36:36;100513.03;;;12.74;100.00
34925;BME280;21130;51.728;8.748;2022-08-21T04:39:01;100513.84;;;12.74;100.00
34925;BME280;21130;51.728;8.748;2022-08-21T04:41:27;100518.38;;;12.81;100.00
34925;BME280;21130;51.728;8.748;2022-08-21T04:43:53;100523.41;;;12.84;100.00
34925;BME280;21130;51.728;8.748;2022-08-21T04:46:20;100516.25;;;12.88;100.00
34925;BME280;21130;51.728;8.748;2022-08-21T04:48:45;100525.72;;;12.87;100.00
34925;BME280;21130;51.728;8.748;2022-08-21T04:51:18;100526.66;;;12.97;100.00
34925;BME280;21130;51.728;8.748;2022-08-21T04:53:54;100527.25;;;13.00;100.00
34925;BME280;21130;51.728;8.748;2022-08-21T04:58:50;100529.63;;;13.13;100.00
34925;BME280;21130;51.728;8.748;2022-08-21T05:01:19;100525.53;;;13.21;100.00
34925;BME280;21130;51.728;8.748;2022-08-21T05:03:47;100525.00;;;13.24;100.00
34925;BME280;21130;51.728;8.748;2022-08-21T05:06:15;100535.97;;;13.30;100.00
34925;BME280;21130;51.728;8.748;2022-08-21T05:08:41;100525.66;;;13.31;100.00
34925;BME280;21130;51.728;8.748;2022-08-21T05:11:09;100535.78;;;13.37;100.00
34925;BME280;21130;51.728;8.748;2022-08-21T05:13:35;100528.03;;;13.44;100.00
34925;BME280;21130;51.728;8.748;2022-08-21T05:16:01;100531.97;;;13.48;100.00
34925;BME280;21130;51.728;8.748;2022-08-21T05:18:26;100533.44;;;13.56;100.00
34925;BME280;21130;51.728;8.748;2022-08-21T05:20:51;100531.53;;;13.61;100.00
34925;BME280;21130;51.728;8.748;2022-08-21T05:23:17;100527.44;;;13.69;100.00
34925;BME280;21130;51.728;8.748;2022-08-21T05:25:42;100536.72;;;13.75;100.00
34925;BME280;21130;51.728;8.748;2022-08-21T05:28:09;100540.13;;;13.82;100.00
34925;BME280;21130;51.728;8.748;2022-08-21T05:30:35;100540.41;;;13.86;100.00
34925;BME280;21130;51.728;8.748;2022-08-21T05:33:03;100544.03;;;13.86;100.00
34925;BME280;21130;51.728;8.748;2022-08-21T05:35:30;100541.84;;;13.88;100.00
34925;BME280;21130;51.728;8.748;2022-08-21T05:37:57;100543.53;;;13.94;100.00
34925;BME280;21130;51.728;8.748;2022-08-21T05:40:23;100537.75;;;14.01;100.00
34925;BME280;21130;51.728;8.748;2022-08-21T05:42:50;100543.38;;;14.06;100.00
34925;BME280;21130;51.728;8.748;2022-08-21T05:45:16;100548.41;;;14.09;100.00
34925;BME280;21130;51.728;8.748;2022-08-21T05:47:42;100544.78;;;14.09;100.00
34925;BME280;21130;51.728;8.748;2022-08-21T05:50:07;100544.84;;;14.19;100.00
34925;BME280;21130;51.728;8.748;2022-08-21T05:52:33;100541.03;;;14.30;100.00
34925;BME280;21130;51.728;8.748;2022-08-21T05:54:58;100545.03;;;14.44;100.00
34925;BME280;21130;51.728;8.748;2022-08-21T05:57:23;100540.09;;;14.57;100.00
34925;BME280;21130;51.728;8.748;2022-08-21T05:59:50;100537.38;;;14.72;100.00
34925;BME280;21130;51.728;8.748;2022-08-21T06:02:20;100538.56;;;14.86;100.00
34925;BME280;21130;51.728;8.748;2022-08-21T06:04:46;100538.09;;;15.00;100.00
34925;BME280;21130;51.728;8.748;2022-08-21T06:07:11;100532.56;;;15.15;100.00
34925;BME280;21130;51.728;8.748;2022-08-21T06:09:37;100537.63;;;15.28;100.00
34925;BME280;21130;51.728;8.748;2022-08-21T06:15:10;100541.88;;;15.62;100.00
34925;BME280;21130;51.728;8.748;2022-08-21T06:17:36;100541.06;;;15.76;100.00
34925;BME280;21130;51.728;8.748;2022-08-21T06:20:02;100534.09;;;15.89;100.00
34925;BME280;21130;51.728;8.748;2022-08-21T06:22:28;100539.97;;;16.03;100.00
34925;BME280;21130;51.728;8.748;2022-08-21T06:24:54;100537.16;;;16.18;100.00
34925;BME280;21130;51.728;8.748;2022-08-21T06:27:19;100539.38;;;16.37;100.00
34925;BME280;21130;51.728;8.748;2022-08-21T06:29:45;100533.72;;;16.52;100.00
34925;BME280;21130;51.728;8.748;2022-08-21T06:32:11;100544.88;;;16.68;100.00
34925;BME280;21130;51.728;8.748;2022-08-21T06:34:38;100547.09;;;16.91;100.00
34925;BME280;21130;51.728;8.748;2022-08-21T06:37:04;100542.56;;;17.05;98.91
34925;BME280;21130;51.728;8.748;2022-08-21T06:39:30;100541.03;;;17.28;95.07
34925;BME280;21130;51.728;8.748;2022-08-21T06:41:56;100529.97;;;17.47;92.88
34925;BME280;21130;51.728;8.748;2022-08-21T06:44:21;100538.59;;;17.61;88.79
34925;BME280;21130;51.728;8.748;2022-08-21T06:46:46;100528.06;;;17.77;87.57
34925;BME280;21130;51.728;8.748;2022-08-21T06:49:14;100533.59;;;17.92;85.88
34925;BME280;21130;51.728;8.748;2022-08-21T06:51:40;100530.13;;;18.06;83.86
34925;BME280;21130;51.728;8.748;2022-08-21T06:54:05;100527.72;;;18.23;82.47
34925;BME280;21130;51.728;8.748;2022-08-21T06:56:31;100522.56;;;18.30;80.59
34925;BME280;21130;51.728;8.748;2022-08-21T06:59:01;100524.72;;;18.44;79.55
34925;BME280;21130;51.728;8.748;2022-08-21T07:01:26;100518.59;;;18.61;79.21
34925;BME280;21130;51.728;8.748;2022-08-21T07:03:52;100523.09;;;18.62;76.30
34925;BME280;21130;51.728;8.748;2022-08-21T07:06:18;100521.22;;;18.81;76.90
34925;BME280;21130;51.728;8.748;2022-08-21T07:08:43;100518.44;;;19.00;76.36
34925;BME280;21130;51.728;8.748;2022-08-21T07:11:13;100521.66;;;19.12;75.27
34925;BME280;21130;51.728;8.748;2022-08-21T07:13:40;100515.53;;;19.29;74.22
34925;BME280;21130;51.728;8.748;2022-08-21T07:16:06;100513.31;;;19.45;73.44
34925;BME280;21130;51.728;8.748;2022-08-21T07:18:31;100516.44;;;19.62;74.08
34925;BME280;21130;51.728;8.748;2022-08-21T07:20:57;100508.31;;;19.80;73.67
34925;BME280;21130;51.728;8.748;2022-08-21T07:23:26;100513.66;;;19.81;70.34
34925;BME280;21130;51.728;8.748;2022-08-21T07:25:53;100508.22;;;19.85;68.17
34925;BME280;21130;51.728;8.748;2022-08-21T07:28:18;100509.94;;;20.00;69.06
34925;BME280;21130;51.728;8.748;2022-08-21T07:30:44;100514.28;;;20.25;68.82
34925;BME280;21130;51.728;8.748;2022-08-21T07:33:11;100512.22;;;20.31;65.75
34925;BME280;21130;51.728;8.748;2022-08-21T07:35:36;100510.97;;;20.37;65.05
34925;BME280;21130;51.728;8.748;2022-08-21T07:38:02;100506.19;;;20.51;65.05
34925;BME280;21130;51.728;8.748;2022-08-21T07:40:27;100513.09;;;20.59;65.66
34925;BME280;21130;51.728;8.748;2022-08-21T07:42:52;100504.75;;;20.81;64.26
34925;BME280;21130;51.728;8.748;2022-08-21T07:45:20;100502.38;;;21.02;62.14
34925;BME280;21130;51.728;8.748;2022-08-21T07:47:46;100498.03;;;21.19;62.36
34925;BME280;21130;51.728;8.748;2022-08-21T07:50:12;100505.63;;;21.46;62.26
34925;BME280;21130;51.728;8.748;2022-08-21T07:52:39;100508.97;;;21.48;59.48
34925;BME280;21130;51.728;8.748;2022-08-21T07:55:06;100500.41;;;21.75;58.77
34925;BME280;21130;51.728;8.748;2022-08-21T07:57:31;100495.84;;;21.88;56.45
34925;BME280;21130;51.728;8.748;2022-08-21T07:59:57;100496.56;;;21.94;56.93
34925;BME280;21130;51.728;8.748;2022-08-21T08:02:26;100497.97;;;21.60;56.25
34925;BME280;21130;51.728;8.748;2022-08-21T08:04:52;100504.50;;;21.92;54.18
34925;BME280;21130;51.728;8.748;2022-08-21T08:07:18;100501.13;;;21.81;54.35
34925;BME280;21130;51.728;8.748;2022-08-21T08:09:44;100500.41;;;21.98;54.57
34925;BME280;21130;51.728;8.748;2022-08-21T08:12:09;100500.59;;;22.01;55.67
34925;BME280;21130;51.728;8.748;2022-08-21T08:14:35;100499.97;;;22.27;54.56
34925;BME280;21130;51.728;8.748;2022-08-21T08:17:01;100493.47;;;22.27;55.80
34925;BME280;21130;51.728;8.748;2022-08-21T08:19:27;100503.13;;;22.26;56.41
34925;BME280;21130;51.728;8.748;2022-08-21T08:21:53;100486.97;;;22.57;56.67
34925;BME280;21130;51.728;8.748;2022-08-21T08:24:18;100492.06;;;22.78;54.87
34925;BME280;21130;51.728;8.748;2022-08-21T08:26:44;100483.53;;;23.18;53.92
34925;BME280;21130;51.728;8.748;2022-08-21T08:29:09;100484.00;;;23.20;50.46
34925;BME280;21130;51.728;8.748;2022-08-21T08:31:36;100482.22;;;23.59;50.58
34925;BME280;21130;51.728;8.748;2022-08-21T08:34:01;100481.88;;;23.51;51.58
34925;BME280;21130;51.728;8.748;2022-08-21T08:36:35;100470.22;;;23.44;49.93
34925;BME280;21130;51.728;8.748;2022-08-21T08:39:03;100469.41;;;23.53;49.54
34925;BME280;21130;51.728;8.748;2022-08-21T08:41:28;100472.72;;;23.46;48.19
34925;BME280;21130;51.728;8.748;2022-08-21T08:44:00;100477.72;;;23.49;45.14
34925;BME280;21130;51.728;8.748;2022-08-21T08:46:40;100472.88;;;23.41;44.57
34925;BME280;21130;51.728;8.748;2022-08-21T08:49:14;100470.56;;;23.86;43.08
34925;BME280;21130;51.728;8.748;2022-08-21T08:51:51;100474.56;;;24.03;45.17
34925;BME280;21130;51.728;8.748;2022-08-21T08:54:43;100471.91;;;23.63;46.87
34925;BME280;21130;51.728;8.748;2022-08-21T08:57:15;100471.25;;;23.83;47.49
34925;BME280;21130;51.728;8.748;2022-08-21T08:59:44;100469.06;;;23.63;46.33
34925;BME280;21130;51.728;8.748;2022-08-21T09:02:13;100467.75;;;23.78;46.23
34925;BME280;21130;51.728;8.748;2022-08-21T09:04:39;100460.25;;;24.37;45.07
34925;BME280;21130;51.728;8.748;2022-08-21T09:07:36;100464.00;;;24.97;44.13
34925;BME280;21130;51.728;8.748;2022-08-21T09:10:21;100461.56;;;25.38;44.63
34925;BME280;21130;51.728;8.748;2022-08-21T09:13:14;100455.22;;;25.62;41.57
34925;BME280;21130;51.728;8.748;2022-08-21T09:15:53;100466.03;;;25.90;40.76
34925;BME280;21130;51.728;8.748;2022-08-21T09:21:19;100465.38;;;25.63;40.09
34925;BME280;21130;51.728;8.748;2022-08-21T09:26:25;100452.78;;;26.51;39.67
34925;BME280;21130;51.728;8.748;2022-08-21T09:28:54;100456.03;;;26.87;37.07
34925;BME280;21130;51.728;8.748;2022-08-21T09:31:29;100447.81;;;26.73;37.40
34925;BME280;21130;51.728;8.748;2022-08-21T09:34:29;100447.97;;;25.85;39.28
34925;BME280;21130;51.728;8.748;2022-08-21T09:36:55;100448.25;;;25.93;39.12
34925;BME280;21130;51.728;8.748;2022-08-21T09:39:30;100454.94;;;26.67;36.81
34925;BME280;21130;51.728;8.748;2022-08-21T09:42:02;100442.00;;;27.19;36.20
34925;BME280;21130;51.728;8.748;2022-08-21T09:44:32;100448.19;;;26.59;37.60
34925;BME280;21130;51.728;8.748;2022-08-21T09:46:58;100447.72;;;26.94;39.18
34925;BME280;21130;51.728;8.748;2022-08-21T09:51:54;100449.19;;;26.30;39.29
34925;BME280;21130;51.728;8.748;2022-08-21T09:54:27;100443.56;;;25.76;40.00
34925;BME280;21130;51.728;8.748;2022-08-21T09:57:12;100448.56;;;26.12;39.75
34925;BME280;21130;51.728;8.748;2022-08-21T10:00:29;100443.78;;;26.04;39.35
34925;BME280;21130;51.728;8.748;2022-08-21T10:03:16;100424.59;;;26.59;38.60
34925;BME280;21130;51.728;8.748;2022-08-21T10:06:00;100417.84;;;27.41;36.44
34925;BME280;21130;51.728;8.748;2022-08-21T10:08:27;100422.75;;;27.56;36.90
34925;BME280;21130;51.728;8.748;2022-08-21T10:11:02;100420.53;;;26.97;37.15
34925;BME280;21130;51.728;8.748;2022-08-21T10:24:38;100415.78;;;26.88;36.89
34925;BME280;21130;51.728;8.748;2022-08-21T10:30:13;100410.72;;;26.57;38.47
34925;BME280;21130;51.728;8.748;2022-08-21T10:33:07;100405.50;;;26.71;38.36
34925;BME280;21130;51.728;8.748;2022-08-21T10:35:53;100397.78;;;27.37;36.35
34925;BME280;21130;51.728;8.748;2022-08-21T10:38:41;100399.56;;;27.42;36.49
34925;BME280;21130;51.728;8.748;2022-08-21T10:41:39;100406.59;;;27.60;36.88
34925;BME280;21130;51.728;8.748;2022-08-21T10:44:13;100401.50;;;27.25;37.80
34925;BME280;21130;51.728;8.748;2022-08-21T10:47:02;100397.38;;;26.98;37.07
34925;BME280;21130;51.728;8.748;2022-08-21T10:49:45;100408.09;;;26.89;37.51
34925;BME280;21130;51.728;8.748;2022-08-21T10:54:51;100401.97;;;27.15;37.62
34925;BME280;21130;51.728;8.748;2022-08-21T10:57:40;100388.03;;;26.61;36.72
34925;BME280;21130;51.728;8.748;2022-08-21T11:00:15;100391.94;;;26.81;37.60
34925;BME280;21130;51.728;8.748;2022-08-21T11:02:44;100396.47;;;26.82;36.72
34925;BME280;21130;51.728;8.748;2022-08-21T11:05:15;100394.53;;;26.86;40.07
34925;BME280;21130;51.728;8.748;2022-08-21T11:07:53;100395.81;;;27.13;36.41
34925;BME280;21130;51.728;8.748;2022-08-21T11:10:34;100386.38;;;27.37;36.52
34925;BME280;21130;51.728;8.748;2022-08-21T11:13:06;100382.66;;;27.77;36.31
34925;BME280;21130;51.728;8.748;2022-08-21T11:18:15;100382.06;;;28.31;34.56
34925;BME280;21130;51.728;8.748;2022-08-21T11:21:02;100380.97;;;27.76;35.46
34925;BME280;21130;51.728;8.748;2022-08-21T11:23:56;100385.00;;;27.87;35.72
34925;BME280;21130;51.728;8.748;2022-08-21T11:26:34;100390.03;;;27.50;34.55
34925;BME280;21130;51.728;8.748;2022-08-21T11:29:10;100382.28;;;27.10;36.09
34925;BME280;21130;51.728;8.748;2022-08-21T11:31:48;100394.19;;;26.75;36.07
34925;BME280;21130;51.728;8.748;2022-08-21T11:34:36;100375.09;;;26.63;36.05
34925;BME280;21130;51.728;8.748;2022-08-21T11:37:17;100377.06;;;27.24;37.60
34925;BME280;21130;51.728;8.748;2022-08-21T11:40:12;100386.53;;;27.28;34.90
34925;BME280;21130;51.728;8.748;2022-08-21T11:42:50;100382.91;;;27.72;34.36
34925;BME280;21130;51.728;8.748;2022-08-21T11:45:32;100376.91;;;28.05;34.04
34925;BME280;21130;51.728;8.748;2022-08-21T11:50:51;100380.16;;;27.19;35.53
34925;BME280;21130;51.728;8.748;2022-08-21T11:53:26;100382.69;;;26.96;35.49
34925;BME280;21130;51.728;8.748;2022-08-21T11:56:01;100377.16;;;27.15;36.13
34925;BME280;21130;51.728;8.748;2022-08-21T11:58:32;100376.94;;;27.21;36.69
34925;BME280;21130;51.728;8.748;2022-08-21T12:01:05;100378.19;;;27.35;35.06
34925;BME280;21130;51.728;8.748;2022-08-21T12:03:34;100375.50;;;27.55;36.83
34925;BME280;21130;51.728;8.748;2022-08-21T12:06:08;100369.31;;;27.81;35.53
34925;BME280;21130;51.728;8.748;2022-08-21T12:08:37;100374.34;;;27.03;37.38
34925;BME280;21130;51.728;8.748;2022-08-21T12:13:34;100377.88;;;27.25;36.38
34925;BME280;21130;51.728;8.748;2022-08-21T12:18:37;100378.72;;;27.53;35.93
34925;BME280;21130;51.728;8.748;2022-08-21T12:21:17;100377.16;;;27.56;37.29
34925;BME280;21130;51.728;8.748;2022-08-21T12:24:16;100371.19;;;28.69;34.44
34925;BME280;21130;51.728;8.748;2022-08-21T12:29:32;100373.59;;;27.87;35.13
34925;BME280;21130;51.728;8.748;2022-08-21T12:34:52;100367.44;;;27.73;35.36
34925;BME280;21130;51.728;8.748;2022-08-21T12:37:37;100374.81;;;28.02;36.03
34925;BME280;21130;51.728;8.748;2022-08-21T12:40:20;100371.84;;;27.83;35.46
34925;BME280;21130;51.728;8.748;2022-08-21T12:42:50;100366.88;;;28.11;35.92
34925;BME280;21130;51.728;8.748;2022-08-21T12:45:27;100356.31;;;28.12;34.65
34925;BME280;21130;51.728;8.748;2022-08-21T12:48:07;100357.44;;;28.55;33.34
34925;BME280;21130;51.728;8.748;2022-08-21T12:50:41;100361.56;;;28.26;34.79
34925;BME280;21130;51.728;8.748;2022-08-21T12:53:31;100354.94;;;28.53;34.30
34925;BME280;21130;51.728;8.748;2022-08-21T12:56:02;100353.16;;;28.01;33.70
34925;BME280;21130;51.728;8.748;2022-08-21T12:58:29;100354.88;;;28.85;34.63
34925;BME280;21130;51.728;8.748;2022-08-21T13:01:28;100351.63;;;27.75;34.22
34925;BME280;21130;51.728;8.748;2022-08-21T13:03:58;100340.25;;;28.39;33.69
34925;BME280;21130;51.728;8.748;2022-08-21T13:06:29;100344.16;;;28.62;33.20
34925;BME280;21130;51.728;8.748;2022-08-21T13:08:59;100341.69;;;28.29;34.32
34925;BME280;21130;51.728;8.748;2022-08-21T13:11:28;100345.31;;;29.13;34.28
34925;BME280;21130;51.728;8.748;2022-08-21T13:13:54;100347.56;;;29.23;32.39
34925;BME280;21130;51.728;8.748;2022-08-21T13:16:28;100341.59;;;28.93;32.10
34925;BME280;21130;51.728;8.748;2022-08-21T13:18:58;100348.88;;;28.55;32.92
34925;BME280;21130;51.728;8.748;2022-08-21T13:21:31;100342.34;;;28.90;32.55
34925;BME280;21130;51.728;8.748;2022-08-21T13:26:40;100342.78;;;29.27;28.97
34925;BME280;21130;51.728;8.748;2022-08-21T13:29:07;100339.38;;;29.41;31.15
34925;BME280;21130;51.728;8.748;2022-08-21T13:31:32;100334.75;;;29.56;33.58
34925;BME280;21130;51.728;8.748;2022-08-21T13:33:58;100336.44;;;29.37;31.88
34925;BME280;21130;51.728;8.748;2022-08-21T13:36:27;100331.31;;;29.66;30.09
34925;BME280;21130;51.728;8.748;2022-08-21T13:38:54;100329.50;;;29.77;30.28
34925;BME280;21130;51.728;8.748;2022-08-21T13:41:24;100338.69;;;29.67;28.73
34925;BME280;21130;51.728;8.748;2022-08-21T13:43:58;100332.16;;;29.27;29.61
34925;BME280;21130;51.728;8.748;2022-08-21T13:46:27;100333.66;;;29.41;30.96
34925;BME280;21130;51.728;8.748;2022-08-21T13:48:54;100337.69;;;29.79;29.68